createdAt,value
2019-05-16T00:01:23.488Z,17.01
2019-05-16T00:03:54.922Z,17.00
2019-05-16T00:06:28.325Z,16.97
2019-05-16T00:08:59.746Z,16.97
2019-05-16T00:11:31.506Z,16.98
2019-05-16T00:14:03.145Z,16.95
2019-05-16T00:16:34.655Z,16.91
2019-05-16T00:19:06.055Z,16.90
2019-05-16T00:21:38.299Z,16.89
2019-05-16T00:24:11.261Z,16.89
2019-05-16T00:26:42.698Z,16.81
2019-05-16T00:29:14.137Z,16.75
2019-05-16T00:31:45.456Z,16.75
2019-05-16T00:34:18.884Z,16.74
2019-05-16T00:36:50.365Z,16.74
2019-05-16T00:39:21.756Z,16.70
2019-05-16T00:41:53.101Z,16.66
2019-05-16T00:44:24.960Z,16.66
2019-05-16T00:46:58.075Z,16.66
2019-05-16T00:49:29.917Z,16.63
2019-05-16T00:52:01.365Z,16.62
2019-05-16T00:54:33.343Z,16.58
2019-05-16T00:57:05.195Z,16.60
2019-05-16T00:59:38.094Z,16.59
2019-05-16T01:02:09.631Z,16.58
2019-05-16T01:04:41.687Z,16.56
2019-05-16T01:07:14.057Z,16.56
2019-05-16T01:09:46.123Z,16.56
2019-05-16T01:12:17.946Z,16.56
2019-05-16T01:14:50.876Z,16.59
2019-05-16T01:17:22.174Z,16.58
2019-05-16T01:19:53.728Z,16.58
2019-05-16T01:22:25.143Z,16.52
2019-05-16T01:24:58.492Z,16.49
2019-05-16T01:27:30.288Z,16.45
2019-05-16T01:30:01.792Z,16.45
2019-05-16T01:32:33.217Z,16.45
2019-05-16T01:35:08.200Z,16.45
2019-05-16T01:37:38.910Z,16.43
2019-05-16T01:40:10.302Z,16.40
2019-05-16T01:42:41.659Z,16.39
2019-05-16T01:45:13.391Z,16.35
2019-05-16T01:47:45.055Z,16.28
2019-05-16T01:50:18.167Z,16.32
2019-05-16T01:52:49.797Z,16.30
2019-05-16T01:55:21.554Z,16.34
2019-05-16T01:57:53.419Z,16.32
2019-05-16T02:00:34.514Z,16.29
2019-05-16T02:02:58.514Z,16.31
2019-05-16T02:05:30.066Z,16.29
2019-05-16T02:08:02.797Z,16.26
2019-05-16T02:10:33.907Z,16.28
2019-05-16T02:13:05.416Z,16.33
2019-05-16T02:15:38.388Z,16.35
2019-05-16T02:18:09.950Z,16.34
2019-05-16T02:20:41.342Z,16.34
2019-05-16T02:23:12.646Z,16.34
2019-05-16T02:25:44.326Z,16.32
2019-05-16T02:28:15.838Z,16.33
2019-05-16T02:30:50.952Z,16.36
2019-05-16T02:33:21.606Z,16.41
2019-05-16T02:35:55.523Z,16.40
2019-05-16T02:38:26.552Z,16.43
2019-05-16T02:40:58.512Z,16.46
2019-05-16T02:43:31.360Z,16.49
2019-05-16T02:46:03.027Z,16.55
2019-05-16T02:48:35.256Z,16.62
2019-05-16T02:51:10.831Z,16.67
2019-05-16T02:53:41.533Z,16.72
2019-05-16T02:56:14.386Z,16.76
2019-05-16T02:58:45.717Z,16.81
2019-05-16T03:01:17.230Z,16.86
2019-05-16T03:03:51.420Z,16.96
2019-05-16T03:06:21.988Z,17.01
2019-05-16T03:08:53.990Z,17.07
2019-05-16T03:11:25.654Z,17.15
2019-05-16T03:14:00.399Z,17.25
2019-05-16T03:16:31.603Z,17.37
2019-05-16T03:19:04.279Z,17.59
2019-05-16T03:21:35.906Z,18.03
2019-05-16T03:24:07.313Z,18.55
2019-05-16T03:26:40.863Z,18.65
2019-05-16T03:29:12.659Z,18.55
2019-05-16T03:31:45.555Z,18.81
2019-05-16T03:34:19.041Z,19.20
2019-05-16T03:36:54.347Z,19.54
2019-05-16T03:39:23.340Z,20.32
2019-05-16T03:41:54.748Z,20.83
2019-05-16T03:44:26.111Z,21.05
2019-05-16T03:47:00.782Z,21.29
2019-05-16T03:49:31.415Z,21.38
2019-05-16T03:52:03.200Z,21.34
2019-05-16T03:54:34.537Z,21.42
2019-05-16T03:57:06.404Z,21.38
2019-05-16T03:59:40.692Z,21.46
2019-05-16T04:02:11.409Z,21.21
2019-05-16T04:04:43.016Z,20.87
2019-05-16T04:07:14.839Z,20.65
2019-05-16T04:09:46.398Z,20.49
2019-05-16T04:12:21.137Z,20.54
2019-05-16T04:14:51.455Z,20.76
2019-05-16T04:17:22.988Z,20.76
2019-05-16T04:19:54.361Z,20.89
2019-05-16T04:22:26.136Z,21.10
2019-05-16T04:24:58.031Z,21.38
2019-05-16T04:27:30.869Z,21.58
2019-05-16T04:30:02.953Z,21.80
2019-05-16T04:32:34.511Z,22.04
2019-05-16T04:35:06.517Z,22.31
2019-05-16T04:37:37.918Z,22.33
2019-05-16T04:40:12.040Z,22.48
2019-05-16T04:42:44.187Z,22.51
2019-05-16T04:45:21.353Z,22.58
2019-05-16T04:48:00.405Z,22.56
2019-05-16T04:50:33.880Z,22.72
2019-05-16T04:53:07.377Z,22.93
2019-05-16T04:55:42.812Z,23.21
2019-05-16T04:58:23.107Z,23.62
2019-05-16T05:00:56.555Z,24.07
2019-05-16T05:03:31.234Z,24.74
2019-05-16T05:06:01.594Z,25.43
2019-05-16T05:08:49.314Z,25.93
2019-05-16T05:11:10.839Z,26.57
2019-05-16T05:14:14.865Z,27.03
2019-05-16T05:16:53.888Z,27.55
2019-05-16T05:19:37.940Z,27.87
2019-05-16T05:22:25.865Z,28.47
2019-05-16T05:25:03.588Z,28.84
2019-05-16T05:27:46.477Z,29.27
2019-05-16T05:33:24.511Z,29.93
2019-05-16T05:36:20.929Z,30.15
2019-05-16T05:41:57.041Z,31.37
2019-05-16T05:44:36.507Z,31.46
2019-05-16T05:47:23.330Z,32.06
2019-05-16T05:53:16.038Z,32.22
2019-05-16T05:56:13.597Z,32.77
2019-05-16T05:58:51.488Z,32.77
2019-05-16T06:01:36.239Z,32.82
2019-05-16T06:04:30.384Z,33.06
2019-05-16T06:07:20.585Z,33.67
2019-05-16T06:10:19.766Z,33.95
2019-05-16T06:13:20.616Z,35.58
2019-05-16T06:16:05.287Z,35.57
2019-05-16T06:18:43.104Z,36.29
2019-05-16T06:21:24.926Z,37.16
2019-05-16T06:24:10.896Z,37.69
2019-05-16T06:27:01.069Z,37.66
2019-05-16T06:29:44.255Z,37.54
2019-05-16T06:32:30.372Z,37.37
2019-05-16T06:35:04.238Z,37.32
2019-05-16T06:37:44.387Z,37.09
2019-05-16T06:44:01.944Z,38.06
2019-05-16T06:47:15.012Z,38.06
2019-05-16T06:49:53.564Z,37.39
2019-05-16T06:52:37.137Z,37.23
2019-05-16T06:55:23.549Z,37.31
2019-05-16T06:58:04.906Z,37.87
2019-05-16T07:00:52.485Z,37.68
2019-05-16T07:03:24.080Z,37.94
2019-05-16T07:05:55.651Z,38.69
2019-05-16T07:08:26.957Z,38.90
2019-05-16T07:10:59.987Z,38.24
2019-05-16T07:13:31.679Z,38.72
2019-05-16T07:16:03.444Z,38.27
2019-05-16T07:18:34.810Z,38.31
2019-05-16T07:21:06.293Z,38.16
2019-05-16T07:23:40.307Z,38.73
2019-05-16T07:26:10.793Z,38.60
2019-05-16T07:28:42.081Z,37.93
2019-05-16T07:31:18.317Z,37.43
2019-05-16T07:33:50.197Z,37.03
2019-05-16T07:36:22.373Z,36.45
2019-05-16T07:38:53.874Z,36.03
2019-05-16T07:41:25.934Z,35.12
2019-05-16T07:43:57.689Z,35.70
2019-05-16T07:46:31.578Z,36.91
2019-05-16T07:49:04.105Z,37.90
2019-05-16T07:51:36.038Z,38.32
2019-05-16T07:54:07.478Z,38.86
2019-05-16T07:56:40.677Z,39.22
2019-05-16T07:59:12.022Z,39.99
2019-05-16T08:01:43.674Z,40.86
2019-05-16T08:04:15.153Z,40.56
2019-05-16T08:06:47.271Z,39.35
2019-05-16T08:09:21.145Z,38.25
2019-05-16T08:11:52.128Z,37.76
2019-05-16T08:14:24.015Z,37.49
2019-05-16T08:16:55.432Z,38.17
2019-05-16T08:19:26.818Z,40.11
2019-05-16T08:22:01.362Z,41.57
2019-05-16T08:24:36.022Z,41.75
2019-05-16T08:27:06.102Z,41.75
2019-05-16T08:29:39.865Z,40.65
2019-05-16T08:32:11.714Z,39.43
2019-05-16T08:34:43.595Z,39.55
2019-05-16T08:39:50.957Z,40.14
2019-05-16T08:42:22.038Z,41.41
2019-05-16T08:44:54.008Z,42.00
2019-05-16T08:47:26.076Z,42.39
2019-05-16T08:50:00.690Z,43.17
2019-05-16T08:52:32.979Z,43.29
2019-05-16T08:55:06.525Z,43.08
2019-05-16T08:57:40.844Z,42.14
2019-05-16T09:00:14.449Z,41.30
2019-05-16T09:02:45.476Z,41.56
2019-05-16T09:05:16.977Z,39.91
2019-05-16T09:07:48.786Z,40.41
2019-05-16T09:10:34.227Z,39.94
2019-05-16T09:12:53.848Z,40.03
2019-05-16T09:15:27.334Z,40.88
2019-05-16T09:17:58.442Z,41.14
2019-05-16T09:20:30.085Z,41.57
2019-05-16T09:23:02.047Z,41.30
2019-05-16T09:25:33.806Z,41.07
2019-05-16T09:28:07.485Z,40.40
2019-05-16T09:30:38.554Z,40.72
2019-05-16T09:33:10.612Z,40.85
2019-05-16T09:35:42.367Z,41.31
2019-05-16T09:38:17.841Z,41.64
2019-05-16T09:40:48.047Z,42.19
2019-05-16T09:43:19.414Z,42.38
2019-05-16T09:45:50.436Z,42.89
2019-05-16T09:48:23.823Z,43.29
2019-05-16T09:50:57.746Z,43.29
2019-05-16T09:53:28.889Z,43.62
2019-05-16T09:56:00.425Z,43.08
2019-05-16T09:58:32.388Z,43.31
2019-05-16T10:01:04.251Z,42.85
2019-05-16T10:03:37.202Z,41.81
2019-05-16T10:06:08.898Z,41.59
2019-05-16T10:08:40.745Z,41.34
2019-05-16T10:11:12.519Z,40.95
2019-05-16T10:13:46.938Z,40.42
2019-05-16T10:16:17.656Z,39.89
2019-05-16T10:18:49.659Z,38.91
2019-05-16T10:21:21.482Z,37.67
2019-05-16T10:23:56.464Z,36.89
2019-05-16T10:26:28.182Z,36.07
2019-05-16T10:28:59.830Z,35.87
2019-05-16T10:31:44.696Z,35.28
2019-05-16T10:34:07.403Z,35.13
2019-05-16T10:36:38.221Z,34.47
2019-05-16T10:39:10.210Z,34.10
2019-05-16T10:41:41.796Z,33.99
2019-05-16T10:44:13.649Z,33.62
2019-05-16T10:46:47.876Z,33.60
2019-05-16T10:49:33.172Z,33.64
2019-05-16T10:51:52.221Z,33.52
2019-05-16T10:54:24.165Z,33.56
2019-05-16T10:56:57.636Z,33.20
2019-05-16T11:02:01.618Z,33.16
2019-05-16T11:04:49.829Z,33.22
2019-05-16T11:07:07.290Z,32.81
2019-05-16T11:09:39.395Z,32.81
2019-05-16T11:12:11.040Z,32.89
2019-05-16T11:14:42.541Z,32.54
2019-05-16T11:17:14.211Z,32.54
2019-05-16T11:19:46.596Z,32.54
2019-05-16T11:22:18.093Z,32.25
2019-05-16T11:24:49.661Z,32.25
2019-05-16T11:27:21.327Z,32.20
2019-05-16T11:29:53.073Z,32.09
2019-05-16T11:32:26.820Z,31.75
2019-05-16T11:34:57.875Z,31.58
2019-05-16T11:37:29.494Z,31.53
2019-05-16T11:40:01.246Z,31.74
2019-05-16T11:42:32.991Z,31.85
2019-05-16T11:45:10.416Z,31.65
2019-05-16T11:47:42.141Z,31.61
2019-05-16T11:50:17.315Z,31.64
2019-05-16T11:52:47.760Z,31.71
2019-05-16T11:55:19.374Z,31.51
2019-05-16T11:57:51.016Z,31.82
2019-05-16T12:00:22.981Z,31.71
2019-05-16T12:02:54.832Z,31.67
2019-05-16T12:05:27.244Z,31.59
2019-05-16T12:07:58.871Z,31.32
2019-05-16T12:10:30.715Z,31.37
2019-05-16T12:13:02.077Z,31.33
2019-05-16T12:15:33.731Z,31.18
2019-05-16T12:18:08.370Z,31.22
2019-05-16T12:20:38.088Z,31.17
2019-05-16T12:23:09.308Z,31.34
2019-05-16T12:25:41.265Z,31.19
2019-05-16T12:28:21.943Z,31.05
2019-05-16T12:30:53.694Z,30.96
2019-05-16T12:33:27.426Z,31.01
2019-05-16T12:35:58.138Z,30.96
2019-05-16T12:38:29.379Z,30.80
2019-05-16T12:41:01.140Z,30.68
2019-05-16T12:43:44.813Z,30.67
2019-05-16T12:46:07.546Z,30.70
2019-05-16T12:48:41.240Z,30.81
2019-05-16T12:51:17.260Z,30.72
2019-05-16T12:53:49.752Z,30.67
2019-05-16T12:56:21.509Z,30.75
2019-05-16T12:58:53.477Z,30.68
2019-05-16T13:01:33.756Z,30.55
2019-05-16T13:04:03.036Z,30.59
2019-05-16T13:06:37.101Z,30.48
2019-05-16T13:09:09.718Z,30.37
2019-05-16T13:11:47.278Z,30.28
2019-05-16T13:14:21.337Z,30.29
2019-05-16T13:16:53.089Z,30.26
2019-05-16T13:19:33.435Z,30.33
2019-05-16T13:22:01.929Z,30.21
2019-05-16T13:24:33.595Z,30.00
2019-05-16T13:27:08.501Z,30.10
2019-05-16T13:29:39.062Z,30.01
2019-05-16T13:32:10.802Z,29.94
2019-05-16T13:34:42.353Z,29.91
2019-05-16T13:37:17.593Z,29.95
2019-05-16T13:39:47.581Z,29.91
2019-05-16T13:42:19.073Z,29.90
2019-05-16T13:44:50.724Z,29.91
2019-05-16T13:47:22.579Z,29.91
2019-05-16T13:49:54.344Z,29.81
2019-05-16T13:52:28.303Z,29.69
2019-05-16T13:54:59.797Z,29.74
2019-05-16T13:57:31.553Z,29.55
2019-05-16T14:00:03.012Z,29.50
2019-05-16T14:02:37.646Z,29.45
2019-05-16T14:05:08.774Z,29.43
2019-05-16T14:07:40.904Z,29.39
2019-05-16T14:10:12.303Z,29.28
2019-05-16T14:12:49.954Z,29.18
2019-05-16T14:15:20.626Z,29.13
2019-05-16T14:17:52.362Z,29.15
2019-05-16T14:20:23.833Z,29.15
2019-05-16T14:22:57.347Z,29.06
2019-05-16T14:25:29.288Z,28.95
2019-05-16T14:28:01.406Z,28.88
2019-05-16T14:30:33.268Z,28.78
2019-05-16T14:33:12.978Z,28.82
2019-05-16T14:35:38.774Z,28.67
2019-05-16T14:38:12.053Z,28.70
2019-05-16T14:40:49.309Z,28.69
2019-05-16T14:43:17.635Z,28.61
2019-05-16T14:45:50.011Z,28.56
2019-05-16T14:48:21.861Z,28.49
2019-05-16T14:50:53.416Z,28.44
2019-05-16T14:53:28.489Z,28.40
2019-05-16T14:55:59.306Z,28.38
2019-05-16T14:58:32.702Z,28.36
2019-05-16T15:01:07.383Z,28.38
2019-05-16T15:03:40.025Z,28.28
2019-05-16T15:06:30.803Z,28.26
2019-05-16T15:09:23.999Z,28.29
2019-05-16T15:15:15.439Z,28.18
2019-05-16T15:20:38.620Z,28.10
2019-05-16T15:23:17.583Z,28.05
2019-05-16T15:26:18.098Z,27.98
2019-05-16T15:32:09.423Z,27.88
2019-05-16T15:35:11.050Z,27.81
2019-05-16T15:37:58.985Z,27.72
2019-05-16T15:40:48.142Z,27.72
2019-05-16T15:47:04.576Z,27.56
2019-05-16T15:50:02.062Z,27.49
2019-05-16T15:52:38.838Z,27.42
2019-05-16T15:55:30.433Z,27.32
2019-05-16T15:58:18.554Z,27.30
2019-05-16T16:01:00.163Z,27.25
2019-05-16T16:03:39.662Z,27.13
2019-05-16T16:06:18.021Z,27.10
2019-05-16T16:08:55.961Z,27.02
2019-05-16T16:11:53.027Z,26.98
2019-05-16T16:14:37.113Z,26.95
2019-05-16T16:17:29.309Z,26.89
2019-05-16T16:20:10.778Z,26.76
2019-05-16T16:22:59.840Z,26.64
2019-05-16T16:25:36.832Z,26.62
2019-05-16T16:28:32.555Z,26.53
2019-05-16T16:31:13.565Z,26.50
2019-05-16T16:33:46.386Z,26.42
2019-05-16T16:36:17.976Z,26.34
2019-05-16T16:39:07.557Z,26.26
2019-05-16T16:41:39.370Z,26.14
2019-05-16T16:44:11.402Z,26.12
2019-05-16T16:46:42.814Z,26.05
2019-05-16T16:49:17.083Z,25.93
2019-05-16T16:51:48.221Z,25.88
2019-05-16T16:54:19.973Z,25.84
2019-05-16T16:56:51.409Z,25.80
2019-05-16T16:59:22.921Z,25.71
2019-05-16T17:01:57.023Z,25.61
2019-05-16T17:04:52.872Z,25.51
2019-05-16T17:07:24.410Z,25.44
2019-05-16T17:10:03.457Z,25.34
2019-05-16T17:12:40.389Z,25.26
2019-05-16T17:15:09.115Z,25.14
2019-05-16T17:17:40.741Z,25.05
2019-05-16T17:20:30.686Z,24.98
2019-05-16T17:23:02.054Z,24.91
2019-05-16T17:25:33.666Z,24.81
2019-05-16T17:28:07.092Z,24.76
2019-05-16T17:30:38.810Z,24.73
2019-05-16T17:33:11.455Z,24.69
2019-05-16T17:35:43.116Z,24.62
2019-05-16T17:38:17.097Z,24.51
2019-05-16T17:41:07.758Z,24.45
2019-05-16T17:43:58.912Z,24.40
2019-05-16T17:46:37.336Z,24.37
2019-05-16T17:49:03.842Z,24.22
2019-05-16T17:51:38.627Z,24.28
2019-05-16T17:54:10.120Z,24.29
2019-05-16T17:56:52.098Z,24.21
2019-05-16T17:59:27.532Z,24.06
2019-05-16T18:01:59.483Z,24.08
2019-05-16T18:04:32.564Z,24.08
2019-05-16T18:07:04.384Z,24.07
2019-05-16T18:09:36.873Z,23.96
2019-05-16T18:12:08.694Z,23.96
2019-05-16T18:14:40.251Z,23.92
2019-05-16T18:17:11.914Z,23.92
2019-05-16T18:19:44.000Z,23.88
2019-05-16T18:22:15.679Z,23.84
2019-05-16T18:25:07.383Z,23.74
2019-05-16T18:27:54.723Z,23.67
2019-05-16T18:30:27.114Z,23.61
2019-05-16T18:33:00.236Z,23.59
2019-05-16T18:35:31.715Z,23.51
2019-05-16T18:38:07.597Z,23.45
2019-05-16T18:40:40.297Z,23.40
2019-05-16T18:43:12.248Z,23.32
2019-05-16T18:45:44.301Z,23.27
2019-05-16T18:48:16.441Z,23.23
2019-05-16T18:50:48.213Z,23.17
2019-05-16T18:53:19.965Z,23.05
2019-05-16T18:55:53.331Z,22.92
2019-05-16T18:58:26.998Z,22.93
2019-05-16T19:01:01.809Z,22.98
2019-05-16T19:03:38.609Z,22.91
2019-05-16T19:06:10.185Z,22.87
2019-05-16T19:08:42.509Z,22.84
2019-05-16T19:11:14.040Z,22.79
2019-05-16T19:13:47.501Z,22.72
2019-05-16T19:16:20.458Z,22.67
2019-05-16T19:18:52.294Z,22.68
2019-05-16T19:21:26.130Z,22.63
2019-05-16T19:23:57.597Z,22.61
2019-05-16T19:26:29.405Z,22.61
2019-05-16T19:29:01.897Z,22.59
2019-05-16T19:31:38.872Z,22.52
2019-05-16T19:34:09.264Z,22.49
2019-05-16T19:36:43.386Z,22.49
2019-05-16T19:39:28.647Z,22.48
2019-05-16T19:41:59.438Z,22.46
2019-05-16T19:44:30.935Z,22.41
2019-05-16T19:47:03.018Z,22.34
2019-05-16T19:49:43.483Z,22.33
2019-05-16T19:52:16.415Z,22.31
2019-05-16T19:54:48.113Z,22.27
2019-05-16T19:57:19.888Z,22.30
2019-05-16T19:59:52.037Z,22.24
2019-05-16T20:02:24.196Z,22.14
2019-05-16T20:04:58.728Z,22.15
2019-05-16T20:07:31.166Z,22.10
2019-05-16T20:10:02.967Z,22.08
2019-05-16T20:12:37.009Z,22.02
2019-05-16T20:15:27.070Z,21.99
2019-05-16T20:18:02.077Z,21.88
2019-05-16T20:20:33.490Z,21.84
2019-05-16T20:23:05.292Z,21.80
2019-05-16T20:25:36.951Z,21.73
2019-05-16T20:28:09.129Z,21.74
2019-05-16T20:30:42.102Z,21.71
2019-05-16T20:33:13.954Z,21.67
2019-05-16T20:35:46.837Z,21.64
2019-05-16T20:38:20.617Z,21.64
2019-05-16T20:40:53.777Z,21.65
2019-05-16T20:43:26.668Z,21.57
2019-05-16T20:46:00.446Z,21.55
2019-05-16T20:48:31.158Z,21.54
2019-05-16T20:51:02.814Z,21.54
2019-05-16T20:53:34.117Z,21.51
2019-05-16T20:56:06.522Z,21.48
2019-05-16T20:58:41.489Z,21.39
2019-05-16T21:01:12.911Z,21.38
2019-05-16T21:03:46.652Z,21.34
2019-05-16T21:06:20.183Z,21.32
2019-05-16T21:08:51.524Z,21.29
2019-05-16T21:11:23.132Z,21.25
2019-05-16T21:13:56.687Z,21.22
2019-05-16T21:16:28.291Z,21.18
2019-05-16T21:18:59.655Z,21.13
2019-05-16T21:21:31.286Z,21.08
2019-05-16T21:24:02.660Z,21.09
2019-05-16T21:26:36.656Z,21.07
2019-05-16T21:29:09.373Z,21.06
2019-05-16T21:31:40.870Z,20.89
2019-05-16T21:34:12.298Z,21.07
2019-05-16T21:36:43.781Z,20.98
2019-05-16T21:39:17.480Z,20.90
2019-05-16T21:41:48.291Z,20.82
2019-05-16T21:44:19.706Z,20.80
2019-05-16T21:46:53.510Z,20.79
2019-05-16T21:49:24.557Z,20.82
2019-05-16T21:51:57.113Z,20.77
2019-05-16T21:54:28.880Z,20.71
2019-05-16T21:57:00.261Z,20.66
2019-05-16T22:00:26.572Z,20.66
2019-05-16T22:03:16.252Z,20.65
2019-05-16T22:05:47.687Z,20.62
2019-05-16T22:08:19.200Z,20.63
2019-05-16T22:10:50.579Z,20.56
2019-05-16T22:13:21.964Z,20.53
2019-05-16T22:15:53.335Z,20.48
2019-05-16T22:18:26.178Z,20.43
2019-05-16T22:20:58.493Z,20.44
2019-05-16T22:23:29.834Z,20.36
2019-05-16T22:26:01.294Z,20.37
2019-05-16T22:28:32.638Z,20.37
2019-05-16T22:31:04.114Z,20.31
2019-05-16T22:33:37.469Z,20.24
2019-05-16T22:36:09.570Z,20.21
2019-05-16T22:38:40.934Z,20.18
2019-05-16T22:41:12.231Z,20.14
2019-05-16T22:43:43.579Z,20.12
2019-05-16T22:46:17.485Z,20.07
2019-05-16T22:48:48.050Z,20.03
2019-05-16T22:51:20.679Z,20.09
2019-05-16T22:53:52.118Z,20.04
2019-05-16T22:56:23.532Z,19.89
2019-05-16T22:58:56.446Z,19.96
2019-05-16T23:01:28.371Z,19.97
2019-05-16T23:03:59.735Z,19.94
2019-05-16T23:06:31.016Z,19.92
2019-05-16T23:09:02.385Z,19.88
2019-05-16T23:11:36.224Z,19.84
2019-05-16T23:14:07.256Z,19.77
2019-05-16T23:16:38.560Z,19.73
2019-05-16T23:19:09.912Z,19.73
2019-05-16T23:21:41.312Z,19.68
2019-05-16T23:24:12.696Z,19.72
2019-05-16T23:26:44.032Z,19.71
2019-05-16T23:29:16.957Z,19.67
2019-05-16T23:31:50.833Z,19.61
2019-05-16T23:34:23.991Z,19.62
2019-05-16T23:36:56.995Z,19.58
2019-05-16T23:39:28.763Z,19.63
2019-05-16T23:42:00.063Z,19.62
2019-05-16T23:44:31.540Z,19.59
2019-05-16T23:47:02.861Z,19.57
2019-05-16T23:49:36.522Z,19.60
2019-05-16T23:52:10.320Z,19.61
2019-05-16T23:54:42.866Z,19.55
2019-05-16T23:57:14.153Z,19.49
2019-05-16T23:59:47.306Z,19.44
